EJU73CX LPFR-EHAM
Flight info
| Callsign | EJU73CX |
|---|---|
| Flight time | 2h 21m |
| Altitude | 38000 |
| Route | N0444F380 DCT ELVAR DCT BARDI DCT ZMR DCT NUBLO DCT RONSI DCT DELOG DCT PEXOD DCT DIDIG DCT USODA DCT ERCUT DCT DITAL DCT ELCOB DCT PODEM DCT BAZOS DCT BELDI DCT VEKIN/N0430F360 DCT ADUTO N873 FERDI Y18 DENUT |
| Aircraft | A320/M-SDE3FGHIRWY/LB1 |
Departure
| Time | 2026-04-29 15:47 |
|---|---|
| Airport | Faro - Gago Coutinho International Airport (LPFR) |
Arrival
| Time | 2026-04-29 18:08 |
|---|---|
| Airport | Amsterdam Airport Schiphol (EHAM) |
| Time | Latitude | Longitude | Altitude | Speed | Heading |
|---|---|---|---|---|---|
| 2026-04-29 15:22 | 37.01918 | -7.96847 | 20 ft | 0 kts | 10° |
| 2026-04-29 15:40 | 37.01906 | -7.96849 | 23 ft | 4 kts | 9° |
| 2026-04-29 15:40 | 37.01880 | -7.96855 | 22 ft | 4 kts | 11° |
| 2026-04-29 15:41 | 37.01855 | -7.96862 | 23 ft | 3 kts | 19° |
| 2026-04-29 15:41 | 37.01843 | -7.96868 | 23 ft | 2 kts | 45° |
| 2026-04-29 15:41 | 37.01836 | -7.96880 | 25 ft | 2 kts | 93° |
| 2026-04-29 15:41 | 37.01837 | -7.96889 | 24 ft | 2 kts | 103° |
| 2026-04-29 15:42 | 37.01839 | -7.96899 | 22 ft | 0 kts | 104° |
| 2026-04-29 15:43 | 37.01831 | -7.96887 | 24 ft | 7 kts | 136° |
| 2026-04-29 15:43 | 37.01774 | -7.96893 | 20 ft | 10 kts | 190° |
| 2026-04-29 15:43 | 37.01701 | -7.96902 | 20 ft | 11 kts | 169° |
| 2026-04-29 15:43 | 37.01660 | -7.96820 | 20 ft | 11 kts | 101° |
| 2026-04-29 15:44 | 37.01647 | -7.96729 | 20 ft | 10 kts | 100° |
| 2026-04-29 15:44 | 37.01636 | -7.96649 | 20 ft | 9 kts | 100° |
| 2026-04-29 15:44 | 37.01621 | -7.96542 | 20 ft | 14 kts | 99° |
| 2026-04-29 15:44 | 37.01605 | -7.96428 | 20 ft | 13 kts | 100° |
| 2026-04-29 15:45 | 37.01589 | -7.96320 | 20 ft | 15 kts | 100° |
| 2026-04-29 15:45 | 37.01568 | -7.96173 | 21 ft | 17 kts | 100° |
| 2026-04-29 15:45 | 37.01548 | -7.96036 | 19 ft | 15 kts | 100° |
| 2026-04-29 15:45 | 37.01531 | -7.95910 | 18 ft | 14 kts | 99° |
| 2026-04-29 15:46 | 37.01470 | -7.95843 | 20 ft | 12 kts | 178° |
| 2026-04-29 15:46 | 37.01392 | -7.95856 | 20 ft | 11 kts | 189° |
| 2026-04-29 15:46 | 37.01350 | -7.95908 | 21 ft | 9 kts | 273° |
| 2026-04-29 15:46 | 37.01367 | -7.96049 | 21 ft | 40 kts | 280° |
| 2026-04-29 15:47 | 37.01459 | -7.96701 | 27 ft | 107 kts | 280° |
| 2026-04-29 15:47 | 37.01609 | -7.97831 | 90 ft | 150 kts | 276° |
| 2026-04-29 15:47 | 37.01786 | -7.99117 | 740 ft | 151 kts | 278° |
| 2026-04-29 15:47 | 37.01976 | -8.00410 | 1376 ft | 154 kts | 277° |
| 2026-04-29 15:48 | 37.02181 | -8.01803 | 1673 ft | 174 kts | 278° |
| 2026-04-29 15:48 | 37.02416 | -8.03401 | 1934 ft | 199 kts | 277° |
| 2026-04-29 15:48 | 37.02682 | -8.05207 | 2292 ft | 223 kts | 280° |
| 2026-04-29 15:48 | 37.03366 | -8.07032 | 2794 ft | 244 kts | 309° |
| 2026-04-29 15:49 | 37.04817 | -8.08176 | 3566 ft | 257 kts | 343° |
| 2026-04-29 15:49 | 37.06625 | -8.08093 | 4388 ft | 270 kts | 13° |
| 2026-04-29 15:49 | 37.08420 | -8.07328 | 5233 ft | 275 kts | 16° |
| 2026-04-29 15:49 | 37.10231 | -8.06452 | 5963 ft | 282 kts | 19° |
| 2026-04-29 15:50 | 37.12074 | -8.05526 | 6680 ft | 289 kts | 19° |
| 2026-04-29 15:50 | 37.13952 | -8.04579 | 7406 ft | 293 kts | 18° |
| 2026-04-29 15:50 | 37.15862 | -8.03627 | 8140 ft | 298 kts | 18° |
| 2026-04-29 15:50 | 37.17807 | -8.02672 | 8872 ft | 302 kts | 17° |
| 2026-04-29 15:51 | 37.19783 | -8.01713 | 9587 ft | 307 kts | 17° |
| 2026-04-29 15:51 | 37.21797 | -8.00744 | 10197 ft | 316 kts | 17° |
| 2026-04-29 15:51 | 37.23934 | -7.99725 | 10386 ft | 340 kts | 17° |
| 2026-04-29 15:51 | 37.26205 | -7.98640 | 10689 ft | 356 kts | 17° |
| 2026-04-29 15:52 | 37.28544 | -7.97514 | 11295 ft | 363 kts | 17° |
| 2026-04-29 15:52 | 37.30919 | -7.96362 | 11953 ft | 368 kts | 17° |
| 2026-04-29 15:52 | 37.33322 | -7.95194 | 12572 ft | 373 kts | 17° |
| 2026-04-29 15:52 | 37.35759 | -7.94014 | 13217 ft | 377 kts | 17° |
| 2026-04-29 15:53 | 37.38225 | -7.92821 | 13826 ft | 382 kts | 17° |
| 2026-04-29 15:53 | 37.40717 | -7.91616 | 14397 ft | 386 kts | 16° |
| 2026-04-29 15:53 | 37.43237 | -7.90397 | 14951 ft | 390 kts | 16° |
| 2026-04-29 15:53 | 37.45781 | -7.89165 | 15524 ft | 394 kts | 16° |
| 2026-04-29 15:54 | 37.48342 | -7.87919 | 16151 ft | 396 kts | 16° |
| 2026-04-29 15:54 | 37.50921 | -7.86661 | 16711 ft | 400 kts | 15° |
| 2026-04-29 15:54 | 37.53498 | -7.85405 | 17232 ft | 404 kts | 15° |
| 2026-04-29 15:54 | 37.56169 | -7.84105 | 17780 ft | 408 kts | 15° |
| 2026-04-29 15:55 | 37.58800 | -7.82824 | 18292 ft | 412 kts | 15° |
| 2026-04-29 15:55 | 37.61487 | -7.81516 | 18763 ft | 416 kts | 15° |
| 2026-04-29 15:55 | 37.64199 | -7.80195 | 19250 ft | 419 kts | 15° |
| 2026-04-29 15:55 | 37.66928 | -7.78870 | 19751 ft | 422 kts | 15° |
| 2026-04-29 15:56 | 37.69680 | -7.77531 | 20248 ft | 425 kts | 14° |
| 2026-04-29 15:56 | 37.72446 | -7.76186 | 20786 ft | 428 kts | 14° |
| 2026-04-29 15:56 | 37.75231 | -7.74829 | 21269 ft | 431 kts | 14° |
| 2026-04-29 15:56 | 37.78037 | -7.73456 | 21743 ft | 434 kts | 14° |
| 2026-04-29 15:57 | 37.80864 | -7.72069 | 22206 ft | 438 kts | 14° |
| 2026-04-29 15:57 | 37.83717 | -7.70668 | 22661 ft | 441 kts | 14° |
| 2026-04-29 15:57 | 37.86585 | -7.69261 | 23091 ft | 444 kts | 14° |
| 2026-04-29 15:57 | 37.89479 | -7.67838 | 23515 ft | 448 kts | 14° |
| 2026-04-29 15:58 | 37.92390 | -7.66405 | 23862 ft | 451 kts | 14° |
| 2026-04-29 15:58 | 37.95326 | -7.64959 | 24274 ft | 454 kts | 14° |
| 2026-04-29 15:58 | 37.98278 | -7.63504 | 24615 ft | 457 kts | 14° |
| 2026-04-29 15:58 | 38.01251 | -7.62041 | 24960 ft | 459 kts | 14° |
| 2026-04-29 15:59 | 38.04238 | -7.60570 | 25306 ft | 462 kts | 14° |
| 2026-04-29 15:59 | 38.07241 | -7.59089 | 25600 ft | 465 kts | 14° |
| 2026-04-29 15:59 | 38.10263 | -7.57592 | 25902 ft | 468 kts | 14° |
| 2026-04-29 15:59 | 38.13301 | -7.56083 | 26224 ft | 470 kts | 14° |
| 2026-04-29 16:00 | 38.16349 | -7.54572 | 26551 ft | 472 kts | 14° |
| 2026-04-29 16:00 | 38.19414 | -7.53056 | 26882 ft | 474 kts | 14° |
| 2026-04-29 16:00 | 38.22494 | -7.51534 | 27197 ft | 476 kts | 14° |
| 2026-04-29 16:00 | 38.25583 | -7.50005 | 27513 ft | 478 kts | 14° |
| 2026-04-29 16:01 | 38.28689 | -7.48463 | 27825 ft | 480 kts | 14° |
| 2026-04-29 16:01 | 38.31801 | -7.46914 | 28138 ft | 481 kts | 14° |
| 2026-04-29 16:01 | 38.34926 | -7.45356 | 28435 ft | 483 kts | 14° |
| 2026-04-29 16:01 | 38.38061 | -7.43793 | 28728 ft | 485 kts | 14° |
| 2026-04-29 16:02 | 38.41209 | -7.42223 | 29008 ft | 487 kts | 14° |
| 2026-04-29 16:02 | 38.44370 | -7.40648 | 29291 ft | 490 kts | 14° |
| 2026-04-29 16:02 | 38.47558 | -7.39062 | 29503 ft | 493 kts | 14° |
| 2026-04-29 16:02 | 38.50762 | -7.37462 | 29740 ft | 495 kts | 14° |
| 2026-04-29 16:03 | 38.53980 | -7.35851 | 29971 ft | 497 kts | 14° |
| 2026-04-29 16:03 | 38.57207 | -7.34233 | 30192 ft | 499 kts | 14° |
| 2026-04-29 16:03 | 38.60437 | -7.32612 | 30410 ft | 500 kts | 14° |
| 2026-04-29 16:03 | 38.63679 | -7.30982 | 30625 ft | 501 kts | 14° |
| 2026-04-29 16:04 | 38.66922 | -7.29350 | 30924 ft | 500 kts | 14° |
| 2026-04-29 16:04 | 38.70117 | -7.27741 | 31182 ft | 500 kts | 14° |
| 2026-04-29 16:04 | 38.73353 | -7.26114 | 31462 ft | 499 kts | 14° |
| 2026-04-29 16:04 | 38.76575 | -7.24495 | 31765 ft | 498 kts | 14° |
| 2026-04-29 16:05 | 38.79840 | -7.22852 | 32071 ft | 496 kts | 14° |
| 2026-04-29 16:05 | 38.83004 | -7.21256 | 32361 ft | 495 kts | 15° |
| 2026-04-29 16:05 | 38.86213 | -7.19632 | 32612 ft | 495 kts | 15° |
| 2026-04-29 16:05 | 38.89415 | -7.18008 | 32877 ft | 495 kts | 15° |
| 2026-04-29 16:06 | 38.92615 | -7.16385 | 33201 ft | 494 kts | 15° |
| 2026-04-29 16:06 | 38.95814 | -7.14761 | 33476 ft | 494 kts | 15° |
| 2026-04-29 16:06 | 38.99006 | -7.13139 | 33763 ft | 493 kts | 15° |
| 2026-04-29 16:06 | 39.02192 | -7.11523 | 34022 ft | 492 kts | 16° |
| 2026-04-29 16:07 | 39.05370 | -7.09911 | 34271 ft | 491 kts | 16° |
| 2026-04-29 16:07 | 39.08547 | -7.08298 | 34507 ft | 490 kts | 16° |
| 2026-04-29 16:07 | 39.11713 | -7.06684 | 34730 ft | 489 kts | 16° |
| 2026-04-29 16:07 | 39.14870 | -7.05072 | 34976 ft | 488 kts | 17° |
| 2026-04-29 16:08 | 39.18018 | -7.03463 | 35230 ft | 486 kts | 17° |
| 2026-04-29 16:08 | 39.21158 | -7.01858 | 35450 ft | 484 kts | 17° |
| 2026-04-29 16:08 | 39.24287 | -7.00258 | 35665 ft | 483 kts | 17° |
| 2026-04-29 16:08 | 39.27411 | -6.98659 | 35861 ft | 482 kts | 17° |
| 2026-04-29 16:09 | 39.30527 | -6.97067 | 36041 ft | 482 kts | 17° |
| 2026-04-29 16:09 | 39.33640 | -6.95479 | 36225 ft | 481 kts | 17° |
| 2026-04-29 16:09 | 39.36752 | -6.93889 | 36411 ft | 480 kts | 17° |
| 2026-04-29 16:09 | 39.39859 | -6.92296 | 36648 ft | 478 kts | 18° |
| 2026-04-29 16:10 | 39.42942 | -6.90707 | 36858 ft | 477 kts | 18° |
| 2026-04-29 16:10 | 39.46016 | -6.89120 | 37032 ft | 476 kts | 18° |
| 2026-04-29 16:10 | 39.49047 | -6.87556 | 37173 ft | 475 kts | 18° |
| 2026-04-29 16:10 | 39.52126 | -6.85968 | 37325 ft | 474 kts | 18° |
| 2026-04-29 16:11 | 39.55188 | -6.84388 | 37464 ft | 474 kts | 18° |
| 2026-04-29 16:11 | 39.58248 | -6.82805 | 37579 ft | 474 kts | 18° |
| 2026-04-29 16:11 | 39.61310 | -6.81219 | 37738 ft | 473 kts | 19° |
| 2026-04-29 16:11 | 39.64366 | -6.79637 | 37855 ft | 473 kts | 19° |
| 2026-04-29 16:12 | 39.67427 | -6.78054 | 37864 ft | 474 kts | 19° |
| 2026-04-29 16:12 | 39.73555 | -6.74879 | 37860 ft | 474 kts | 19° |
| 2026-04-29 16:13 | 39.79676 | -6.71692 | 37862 ft | 474 kts | 19° |
| 2026-04-29 16:13 | 39.85799 | -6.68507 | 37867 ft | 474 kts | 19° |
| 2026-04-29 16:14 | 39.91920 | -6.65319 | 37868 ft | 473 kts | 19° |
| 2026-04-29 16:14 | 39.98034 | -6.62117 | 37874 ft | 474 kts | 19° |
| 2026-04-29 16:15 | 40.04148 | -6.58914 | 37878 ft | 474 kts | 19° |
| 2026-04-29 16:15 | 40.10270 | -6.55696 | 37896 ft | 474 kts | 20° |
| 2026-04-29 16:16 | 40.16389 | -6.52480 | 37886 ft | 474 kts | 20° |
| 2026-04-29 16:16 | 40.22509 | -6.49260 | 37880 ft | 474 kts | 20° |
| 2026-04-29 16:17 | 40.28622 | -6.46033 | 37866 ft | 474 kts | 20° |
| 2026-04-29 16:17 | 40.34692 | -6.42812 | 37870 ft | 474 kts | 20° |
| 2026-04-29 16:18 | 40.40806 | -6.39584 | 37855 ft | 474 kts | 20° |
| 2026-04-29 16:18 | 40.46930 | -6.36345 | 37858 ft | 475 kts | 20° |
| 2026-04-29 16:19 | 40.53050 | -6.33080 | 37866 ft | 475 kts | 20° |
| 2026-04-29 16:19 | 40.59164 | -6.29803 | 37861 ft | 475 kts | 21° |
| 2026-04-29 16:20 | 40.65202 | -6.26257 | 37862 ft | 475 kts | 24° |
| 2026-04-29 16:20 | 40.71168 | -6.22496 | 37865 ft | 476 kts | 24° |
| 2026-04-29 16:21 | 40.77145 | -6.18738 | 37890 ft | 476 kts | 24° |
| 2026-04-29 16:21 | 40.83137 | -6.15064 | 37881 ft | 475 kts | 23° |
| 2026-04-29 16:22 | 40.89136 | -6.11411 | 37869 ft | 474 kts | 23° |
| 2026-04-29 16:22 | 40.95131 | -6.07738 | 37856 ft | 474 kts | 23° |
| 2026-04-29 16:23 | 41.01113 | -6.04048 | 37865 ft | 474 kts | 24° |
| 2026-04-29 16:23 | 41.07087 | -6.00347 | 37862 ft | 474 kts | 24° |
| 2026-04-29 16:24 | 41.13064 | -5.96640 | 37863 ft | 474 kts | 24° |
| 2026-04-29 16:24 | 41.19040 | -5.92923 | 37865 ft | 475 kts | 24° |
| 2026-04-29 16:25 | 41.25024 | -5.89204 | 37877 ft | 475 kts | 24° |
| 2026-04-29 16:25 | 41.31010 | -5.85480 | 37874 ft | 475 kts | 24° |
| 2026-04-29 16:26 | 41.36988 | -5.81747 | 37872 ft | 475 kts | 24° |
| 2026-04-29 16:26 | 41.42967 | -5.78003 | 37878 ft | 475 kts | 24° |
| 2026-04-29 16:27 | 41.48945 | -5.74265 | 37876 ft | 474 kts | 25° |
| 2026-04-29 16:27 | 41.54882 | -5.70540 | 37857 ft | 474 kts | 25° |
| 2026-04-29 16:28 | 41.60850 | -5.66781 | 37861 ft | 474 kts | 25° |
| 2026-04-29 16:28 | 41.66818 | -5.63016 | 37869 ft | 475 kts | 25° |
| 2026-04-29 16:29 | 41.72831 | -5.59218 | 37851 ft | 480 kts | 25° |
| 2026-04-29 16:29 | 41.77908 | -5.55998 | 37852 ft | 483 kts | 25° |
| 2026-04-29 16:30 | 41.85003 | -5.51496 | 37854 ft | 487 kts | 25° |
| 2026-04-29 16:30 | 41.90110 | -5.48250 | 37860 ft | 490 kts | 25° |
| 2026-04-29 16:31 | 41.96281 | -5.44318 | 37861 ft | 492 kts | 25° |
| 2026-04-29 16:31 | 42.02475 | -5.40359 | 37854 ft | 494 kts | 25° |
| 2026-04-29 16:32 | 42.08684 | -5.36389 | 37859 ft | 495 kts | 25° |
| 2026-04-29 16:32 | 42.14913 | -5.32416 | 37851 ft | 496 kts | 24° |
| 2026-04-29 16:33 | 42.24412 | -5.26796 | 37860 ft | 498 kts | 22° |
| 2026-04-29 16:33 | 42.30787 | -5.23117 | 37841 ft | 499 kts | 23° |
| 2026-04-29 16:34 | 42.37150 | -5.19360 | 37824 ft | 500 kts | 24° |
| 2026-04-29 16:34 | 42.43510 | -5.15544 | 37820 ft | 500 kts | 24° |
| 2026-04-29 16:35 | 42.49872 | -5.11733 | 37826 ft | 500 kts | 24° |
| 2026-04-29 16:35 | 42.56242 | -5.07920 | 37824 ft | 500 kts | 24° |
| 2026-04-29 16:36 | 42.62612 | -5.04102 | 37824 ft | 501 kts | 24° |
| 2026-04-29 16:36 | 42.68989 | -5.00281 | 37827 ft | 501 kts | 24° |
| 2026-04-29 16:37 | 42.75362 | -4.96442 | 37828 ft | 501 kts | 24° |
| 2026-04-29 16:37 | 42.80662 | -4.93249 | 37821 ft | 501 kts | 24° |
| 2026-04-29 16:38 | 42.88065 | -4.88780 | 37821 ft | 501 kts | 24° |
| 2026-04-29 16:38 | 42.94431 | -4.84917 | 37814 ft | 501 kts | 24° |
| 2026-04-29 16:39 | 43.00795 | -4.81053 | 37812 ft | 500 kts | 24° |
| 2026-04-29 16:39 | 43.07157 | -4.77179 | 37817 ft | 501 kts | 24° |
| 2026-04-29 16:40 | 43.13519 | -4.73304 | 37824 ft | 501 kts | 24° |
| 2026-04-29 16:40 | 43.19878 | -4.69403 | 37818 ft | 501 kts | 24° |
| 2026-04-29 16:41 | 43.26240 | -4.65496 | 37811 ft | 501 kts | 24° |
| 2026-04-29 16:41 | 43.32606 | -4.61588 | 37812 ft | 502 kts | 24° |
| 2026-04-29 16:42 | 43.38983 | -4.57668 | 37814 ft | 502 kts | 24° |
| 2026-04-29 16:42 | 43.45351 | -4.53737 | 37806 ft | 502 kts | 24° |
| 2026-04-29 16:43 | 43.51715 | -4.49796 | 37801 ft | 502 kts | 24° |
| 2026-04-29 16:43 | 43.58087 | -4.45846 | 37808 ft | 502 kts | 24° |
| 2026-04-29 16:44 | 43.64451 | -4.41893 | 37810 ft | 502 kts | 24° |
| 2026-04-29 16:44 | 43.70812 | -4.37930 | 37809 ft | 502 kts | 24° |
| 2026-04-29 16:45 | 43.77172 | -4.33957 | 37811 ft | 501 kts | 24° |
| 2026-04-29 16:45 | 43.83524 | -4.29970 | 37811 ft | 501 kts | 24° |
| 2026-04-29 16:46 | 43.89853 | -4.26000 | 37812 ft | 501 kts | 24° |
| 2026-04-29 16:46 | 43.96198 | -4.22008 | 37812 ft | 501 kts | 24° |
| 2026-04-29 16:47 | 44.02543 | -4.18016 | 37810 ft | 500 kts | 24° |
| 2026-04-29 16:47 | 44.08881 | -4.14016 | 37809 ft | 500 kts | 24° |
| 2026-04-29 16:48 | 44.15212 | -4.10006 | 37811 ft | 500 kts | 24° |
| 2026-04-29 16:48 | 44.21541 | -4.05985 | 37809 ft | 500 kts | 24° |
| 2026-04-29 16:49 | 44.27873 | -4.01947 | 37816 ft | 500 kts | 24° |
| 2026-04-29 16:49 | 44.34068 | -3.97560 | 37811 ft | 500 kts | 35° |
| 2026-04-29 16:50 | 44.39722 | -3.91920 | 37820 ft | 499 kts | 36° |
| 2026-04-29 16:50 | 44.45362 | -3.86244 | 37814 ft | 499 kts | 36° |
| 2026-04-29 16:51 | 44.51004 | -3.80558 | 37802 ft | 499 kts | 36° |
| 2026-04-29 16:51 | 44.56641 | -3.74881 | 37825 ft | 499 kts | 36° |
| 2026-04-29 16:52 | 44.62270 | -3.69209 | 37824 ft | 498 kts | 36° |
| 2026-04-29 16:52 | 44.67892 | -3.63513 | 37828 ft | 498 kts | 36° |
| 2026-04-29 16:53 | 44.73468 | -3.57838 | 37826 ft | 498 kts | 37° |
| 2026-04-29 16:53 | 44.79075 | -3.52122 | 37830 ft | 498 kts | 37° |
| 2026-04-29 16:54 | 44.84698 | -3.46392 | 37835 ft | 498 kts | 37° |
| 2026-04-29 16:54 | 44.90301 | -3.40664 | 37814 ft | 497 kts | 37° |
| 2026-04-29 16:55 | 44.95892 | -3.34925 | 37837 ft | 497 kts | 37° |
| 2026-04-29 16:55 | 45.01475 | -3.29178 | 37836 ft | 496 kts | 37° |
| 2026-04-29 16:56 | 45.07055 | -3.23421 | 37836 ft | 496 kts | 37° |
| 2026-04-29 16:56 | 45.12627 | -3.17657 | 37840 ft | 496 kts | 37° |
| 2026-04-29 16:57 | 45.18197 | -3.11881 | 37843 ft | 496 kts | 37° |
| 2026-04-29 16:57 | 45.23763 | -3.06098 | 37829 ft | 496 kts | 37° |
| 2026-04-29 16:58 | 45.29318 | -3.00310 | 37845 ft | 495 kts | 37° |
| 2026-04-29 16:58 | 45.34869 | -2.94518 | 37856 ft | 495 kts | 37° |
| 2026-04-29 16:59 | 45.40422 | -2.88714 | 37853 ft | 495 kts | 37° |
| 2026-04-29 16:59 | 45.45927 | -2.82935 | 37855 ft | 495 kts | 37° |
| 2026-04-29 17:00 | 45.51467 | -2.77106 | 37863 ft | 495 kts | 37° |
| 2026-04-29 17:00 | 45.57015 | -2.71265 | 37844 ft | 496 kts | 37° |
| 2026-04-29 17:01 | 45.62558 | -2.65403 | 37856 ft | 496 kts | 37° |
| 2026-04-29 17:01 | 45.68104 | -2.59526 | 37861 ft | 497 kts | 37° |
| 2026-04-29 17:02 | 45.73645 | -2.53640 | 37861 ft | 497 kts | 38° |
| 2026-04-29 17:02 | 45.79194 | -2.47721 | 37868 ft | 497 kts | 37° |
| 2026-04-29 17:03 | 45.84743 | -2.41792 | 37873 ft | 498 kts | 38° |
| 2026-04-29 17:03 | 45.90292 | -2.35847 | 37848 ft | 498 kts | 38° |
| 2026-04-29 17:04 | 45.95833 | -2.29895 | 37879 ft | 497 kts | 38° |
| 2026-04-29 17:04 | 46.01364 | -2.23941 | 37886 ft | 497 kts | 38° |
| 2026-04-29 17:05 | 46.06891 | -2.17982 | 37884 ft | 496 kts | 38° |
| 2026-04-29 17:05 | 46.12416 | -2.12006 | 37884 ft | 496 kts | 38° |
| 2026-04-29 17:06 | 46.17930 | -2.06020 | 37891 ft | 496 kts | 38° |
| 2026-04-29 17:06 | 46.23440 | -2.00026 | 37892 ft | 496 kts | 38° |
| 2026-04-29 17:07 | 46.27979 | -1.95085 | 37884 ft | 496 kts | 38° |
| 2026-04-29 17:07 | 46.34454 | -1.88015 | 37891 ft | 496 kts | 38° |
| 2026-04-29 17:08 | 46.39960 | -1.81987 | 37891 ft | 496 kts | 38° |
| 2026-04-29 17:08 | 46.45421 | -1.75988 | 37904 ft | 496 kts | 38° |
| 2026-04-29 17:09 | 46.50916 | -1.69929 | 37913 ft | 496 kts | 38° |
| 2026-04-29 17:09 | 46.56408 | -1.63862 | 37916 ft | 496 kts | 38° |
| 2026-04-29 17:10 | 46.61900 | -1.57784 | 37914 ft | 496 kts | 38° |
| 2026-04-29 17:10 | 46.67386 | -1.51693 | 37927 ft | 496 kts | 38° |
| 2026-04-29 17:11 | 46.72863 | -1.45590 | 37924 ft | 496 kts | 38° |
| 2026-04-29 17:11 | 46.78342 | -1.39481 | 37927 ft | 496 kts | 38° |
| 2026-04-29 17:12 | 46.83818 | -1.33363 | 37927 ft | 496 kts | 38° |
| 2026-04-29 17:12 | 46.88367 | -1.28267 | 37927 ft | 496 kts | 38° |
| 2026-04-29 17:13 | 46.94734 | -1.21096 | 37906 ft | 496 kts | 38° |
| 2026-04-29 17:13 | 47.00196 | -1.14925 | 37914 ft | 496 kts | 38° |
| 2026-04-29 17:14 | 47.05660 | -1.08750 | 37924 ft | 496 kts | 38° |
| 2026-04-29 17:14 | 47.11117 | -1.02562 | 37921 ft | 496 kts | 38° |
| 2026-04-29 17:15 | 47.16574 | -0.96358 | 37924 ft | 496 kts | 38° |
| 2026-04-29 17:15 | 47.22022 | -0.90148 | 37920 ft | 496 kts | 38° |
| 2026-04-29 17:16 | 47.27471 | -0.83925 | 37924 ft | 496 kts | 38° |
| 2026-04-29 17:16 | 47.32915 | -0.77696 | 37913 ft | 495 kts | 38° |
| 2026-04-29 17:17 | 47.38350 | -0.71454 | 37921 ft | 495 kts | 38° |
| 2026-04-29 17:17 | 47.43777 | -0.65204 | 37931 ft | 495 kts | 38° |
| 2026-04-29 17:18 | 47.49205 | -0.58939 | 37922 ft | 495 kts | 39° |
| 2026-04-29 17:18 | 47.53715 | -0.53717 | 37934 ft | 495 kts | 39° |
| 2026-04-29 17:19 | 47.59149 | -0.47404 | 37937 ft | 495 kts | 39° |
| 2026-04-29 17:19 | 47.64568 | -0.41092 | 37930 ft | 496 kts | 38° |
| 2026-04-29 17:20 | 47.69985 | -0.34766 | 37930 ft | 496 kts | 39° |
| 2026-04-29 17:20 | 47.75406 | -0.28426 | 37935 ft | 496 kts | 39° |
| 2026-04-29 17:21 | 47.80828 | -0.22072 | 37935 ft | 496 kts | 39° |
| 2026-04-29 17:21 | 47.86228 | -0.15701 | 37942 ft | 495 kts | 39° |
| 2026-04-29 17:22 | 47.91627 | -0.09314 | 37953 ft | 495 kts | 39° |
| 2026-04-29 17:22 | 47.97026 | -0.02934 | 37949 ft | 495 kts | 39° |
| 2026-04-29 17:23 | 48.02419 | 0.03459 | 37958 ft | 494 kts | 38° |
| 2026-04-29 17:23 | 48.07752 | 0.09801 | 37991 ft | 493 kts | 38° |
| 2026-04-29 17:24 | 48.13112 | 0.16190 | 37998 ft | 492 kts | 38° |
| 2026-04-29 17:24 | 48.18461 | 0.22581 | 38000 ft | 491 kts | 38° |
| 2026-04-29 17:25 | 48.23796 | 0.28988 | 38000 ft | 491 kts | 38° |
| 2026-04-29 17:25 | 48.29113 | 0.35398 | 38017 ft | 490 kts | 38° |
| 2026-04-29 17:26 | 48.34437 | 0.41811 | 38023 ft | 490 kts | 38° |
| 2026-04-29 17:26 | 48.39742 | 0.48223 | 38022 ft | 489 kts | 39° |
| 2026-04-29 17:27 | 48.45038 | 0.54642 | 38039 ft | 488 kts | 38° |
| 2026-04-29 17:27 | 48.50323 | 0.61073 | 38042 ft | 488 kts | 39° |
| 2026-04-29 17:28 | 48.55602 | 0.67518 | 38040 ft | 488 kts | 39° |
| 2026-04-29 17:28 | 48.60871 | 0.73964 | 38048 ft | 488 kts | 39° |
| 2026-04-29 17:29 | 48.66138 | 0.80418 | 38054 ft | 487 kts | 38° |
| 2026-04-29 17:29 | 48.71405 | 0.86880 | 38044 ft | 488 kts | 38° |
| 2026-04-29 17:30 | 48.76669 | 0.93374 | 38050 ft | 488 kts | 38° |
| 2026-04-29 17:30 | 48.81926 | 0.99889 | 38057 ft | 488 kts | 38° |
| 2026-04-29 17:31 | 48.87189 | 1.06416 | 38070 ft | 488 kts | 38° |
| 2026-04-29 17:31 | 48.92451 | 1.12951 | 38074 ft | 488 kts | 38° |
| 2026-04-29 17:32 | 48.97706 | 1.19502 | 38074 ft | 489 kts | 38° |
| 2026-04-29 17:32 | 49.02959 | 1.26073 | 38074 ft | 489 kts | 38° |
| 2026-04-29 17:33 | 49.08202 | 1.32663 | 38072 ft | 488 kts | 38° |
| 2026-04-29 17:33 | 49.13417 | 1.39222 | 38085 ft | 483 kts | 37° |
| 2026-04-29 17:34 | 49.18554 | 1.45696 | 38089 ft | 482 kts | 38° |
| 2026-04-29 17:34 | 49.23714 | 1.52223 | 38093 ft | 481 kts | 38° |
| 2026-04-29 17:35 | 49.31301 | 1.62264 | 38093 ft | 480 kts | 40° |
| 2026-04-29 17:36 | 49.36186 | 1.69223 | 38116 ft | 479 kts | 40° |
| 2026-04-29 17:36 | 49.41061 | 1.76165 | 38117 ft | 478 kts | 40° |
| 2026-04-29 17:37 | 49.45943 | 1.83030 | 38101 ft | 470 kts | 40° |
| 2026-04-29 17:37 | 49.50740 | 1.89773 | 38111 ft | 466 kts | 40° |
| 2026-04-29 17:38 | 49.55468 | 1.96437 | 38109 ft | 463 kts | 39° |
| 2026-04-29 17:38 | 49.60248 | 2.03182 | 38113 ft | 462 kts | 40° |
| 2026-04-29 17:39 | 49.64946 | 2.09862 | 38114 ft | 462 kts | 41° |
| 2026-04-29 17:39 | 49.69666 | 2.16591 | 38119 ft | 462 kts | 41° |
| 2026-04-29 17:40 | 49.74385 | 2.23334 | 38116 ft | 462 kts | 39° |
| 2026-04-29 17:40 | 49.79095 | 2.30070 | 38155 ft | 461 kts | 40° |
| 2026-04-29 17:41 | 49.83793 | 2.36803 | 38166 ft | 459 kts | 40° |
| 2026-04-29 17:41 | 49.88478 | 2.43535 | 38175 ft | 459 kts | 40° |
| 2026-04-29 17:42 | 49.93142 | 2.50269 | 38190 ft | 458 kts | 41° |
| 2026-04-29 17:42 | 49.97787 | 2.56994 | 38156 ft | 453 kts | 41° |
| 2026-04-29 17:43 | 50.02381 | 2.63681 | 38165 ft | 451 kts | 42° |
| 2026-04-29 17:43 | 50.06963 | 2.70358 | 38164 ft | 451 kts | 41° |
| 2026-04-29 17:44 | 50.11541 | 2.77042 | 38166 ft | 450 kts | 41° |
| 2026-04-29 17:44 | 50.16071 | 2.83661 | 38160 ft | 449 kts | 42° |
| 2026-04-29 17:45 | 50.20623 | 2.90324 | 38176 ft | 449 kts | 43° |
| 2026-04-29 17:45 | 50.25159 | 2.97012 | 38183 ft | 449 kts | 43° |
| 2026-04-29 17:46 | 50.29697 | 3.03714 | 38191 ft | 449 kts | 43° |
| 2026-04-29 17:46 | 50.34236 | 3.10429 | 38192 ft | 449 kts | 43° |
| 2026-04-29 17:47 | 50.39134 | 3.16424 | 38190 ft | 449 kts | 25° |
| 2026-04-29 17:47 | 50.44977 | 3.19881 | 38208 ft | 449 kts | 21° |
| 2026-04-29 17:48 | 50.50801 | 3.23231 | 37739 ft | 439 kts | 21° |
| 2026-04-29 17:48 | 50.53662 | 3.24879 | 37461 ft | 441 kts | 21° |
| 2026-04-29 17:48 | 50.56556 | 3.26547 | 36833 ft | 443 kts | 22° |
| 2026-04-29 17:48 | 50.59452 | 3.28210 | 36046 ft | 444 kts | 22° |
| 2026-04-29 17:49 | 50.62358 | 3.29878 | 35412 ft | 445 kts | 22° |
| 2026-04-29 17:49 | 50.65270 | 3.31560 | 34931 ft | 448 kts | 23° |
| 2026-04-29 17:49 | 50.68199 | 3.33262 | 34377 ft | 449 kts | 23° |
| 2026-04-29 17:49 | 50.71128 | 3.34963 | 33766 ft | 449 kts | 23° |
| 2026-04-29 17:50 | 50.74069 | 3.36671 | 33222 ft | 451 kts | 23° |
| 2026-04-29 17:50 | 50.76979 | 3.38363 | 32668 ft | 453 kts | 23° |
| 2026-04-29 17:50 | 50.79941 | 3.40082 | 32114 ft | 454 kts | 23° |
| 2026-04-29 17:50 | 50.82914 | 3.41806 | 31563 ft | 456 kts | 24° |
| 2026-04-29 17:51 | 50.85933 | 3.43559 | 31008 ft | 457 kts | 24° |
| 2026-04-29 17:51 | 50.88876 | 3.45290 | 30555 ft | 458 kts | 24° |
| 2026-04-29 17:51 | 50.91847 | 3.47130 | 30322 ft | 460 kts | 25° |
| 2026-04-29 17:51 | 50.94815 | 3.49048 | 30037 ft | 461 kts | 26° |
| 2026-04-29 17:52 | 50.97774 | 3.51008 | 29751 ft | 462 kts | 26° |
| 2026-04-29 17:52 | 50.99781 | 3.52348 | 29561 ft | 462 kts | 26° |
| 2026-04-29 17:52 | 51.03713 | 3.54969 | 29199 ft | 464 kts | 26° |
| 2026-04-29 17:52 | 51.06698 | 3.56940 | 28712 ft | 465 kts | 25° |
| 2026-04-29 17:53 | 51.09685 | 3.58895 | 28181 ft | 466 kts | 25° |
| 2026-04-29 17:53 | 51.12695 | 3.60853 | 27654 ft | 467 kts | 25° |
| 2026-04-29 17:53 | 51.15711 | 3.62818 | 27127 ft | 469 kts | 25° |
| 2026-04-29 17:53 | 51.18737 | 3.64797 | 26600 ft | 471 kts | 25° |
| 2026-04-29 17:54 | 51.21773 | 3.66789 | 26060 ft | 473 kts | 25° |
| 2026-04-29 17:54 | 51.24818 | 3.68793 | 25512 ft | 475 kts | 25° |
| 2026-04-29 17:54 | 51.27880 | 3.70810 | 24941 ft | 477 kts | 25° |
| 2026-04-29 17:54 | 51.30952 | 3.72839 | 24355 ft | 478 kts | 25° |
| 2026-04-29 17:55 | 51.34016 | 3.74867 | 23740 ft | 476 kts | 25° |
| 2026-04-29 17:55 | 51.37073 | 3.76893 | 23092 ft | 473 kts | 25° |
| 2026-04-29 17:55 | 51.40102 | 3.78899 | 22510 ft | 469 kts | 25° |
| 2026-04-29 17:55 | 51.43094 | 3.80877 | 21521 ft | 463 kts | 25° |
| 2026-04-29 17:56 | 51.46057 | 3.82838 | 20511 ft | 459 kts | 25° |
| 2026-04-29 17:56 | 51.48993 | 3.84787 | 19675 ft | 452 kts | 25° |
| 2026-04-29 17:56 | 51.51862 | 3.86699 | 19027 ft | 441 kts | 25° |
| 2026-04-29 17:56 | 51.54678 | 3.88580 | 18265 ft | 434 kts | 25° |
| 2026-04-29 17:57 | 51.57447 | 3.90435 | 17457 ft | 428 kts | 25° |
| 2026-04-29 17:57 | 51.60180 | 3.92268 | 16661 ft | 423 kts | 25° |
| 2026-04-29 17:57 | 51.62844 | 3.94049 | 15930 ft | 418 kts | 25° |
| 2026-04-29 17:57 | 51.64652 | 3.95244 | 15538 ft | 416 kts | 24° |
| 2026-04-29 17:58 | 51.68226 | 3.97619 | 15265 ft | 415 kts | 25° |
| 2026-04-29 17:58 | 51.70851 | 3.99378 | 15097 ft | 412 kts | 25° |
| 2026-04-29 17:58 | 51.73528 | 4.01187 | 14857 ft | 412 kts | 25° |
| 2026-04-29 17:58 | 51.76165 | 4.02979 | 14703 ft | 407 kts | 25° |
| 2026-04-29 17:59 | 51.78715 | 4.04709 | 13924 ft | 390 kts | 25° |
| 2026-04-29 17:59 | 51.81187 | 4.06387 | 12650 ft | 382 kts | 25° |
| 2026-04-29 17:59 | 51.83582 | 4.08020 | 11434 ft | 376 kts | 26° |
| 2026-04-29 17:59 | 51.86031 | 4.09698 | 11000 ft | 389 kts | 25° |
| 2026-04-29 18:00 | 51.88532 | 4.11409 | 10741 ft | 390 kts | 25° |
| 2026-04-29 18:00 | 51.91008 | 4.13184 | 10306 ft | 385 kts | 31° |
| 2026-04-29 18:00 | 51.93160 | 4.15674 | 9404 ft | 379 kts | 41° |
| 2026-04-29 18:00 | 51.95208 | 4.18347 | 8494 ft | 377 kts | 41° |
| 2026-04-29 18:01 | 51.97227 | 4.21021 | 7696 ft | 373 kts | 42° |
| 2026-04-29 18:01 | 51.99221 | 4.23681 | 7408 ft | 369 kts | 42° |
| 2026-04-29 18:01 | 52.00535 | 4.25439 | 7302 ft | 370 kts | 42° |
| 2026-04-29 18:01 | 52.03193 | 4.28992 | 7083 ft | 370 kts | 42° |
| 2026-04-29 18:02 | 52.05167 | 4.31620 | 6482 ft | 365 kts | 42° |
| 2026-04-29 18:02 | 52.07080 | 4.34165 | 5903 ft | 364 kts | 43° |
| 2026-04-29 18:02 | 52.09039 | 4.36772 | 5120 ft | 363 kts | 43° |
| 2026-04-29 18:02 | 52.10984 | 4.39365 | 4253 ft | 359 kts | 43° |
| 2026-04-29 18:03 | 52.12833 | 4.41820 | 3832 ft | 327 kts | 42° |
| 2026-04-29 18:03 | 52.14514 | 4.44043 | 3491 ft | 296 kts | 43° |
| 2026-04-29 18:03 | 52.16032 | 4.46053 | 3289 ft | 266 kts | 43° |
| 2026-04-29 18:03 | 52.17387 | 4.47854 | 3175 ft | 237 kts | 44° |
| 2026-04-29 18:04 | 52.18582 | 4.49445 | 3123 ft | 215 kts | 44° |
| 2026-04-29 18:04 | 52.19691 | 4.50931 | 3058 ft | 206 kts | 45° |
| 2026-04-29 18:04 | 52.20703 | 4.52527 | 2943 ft | 196 kts | 58° |
| 2026-04-29 18:04 | 52.21422 | 4.54303 | 2739 ft | 180 kts | 61° |
| 2026-04-29 18:05 | 52.22062 | 4.55970 | 2545 ft | 169 kts | 62° |
| 2026-04-29 18:05 | 52.22676 | 4.57563 | 2302 ft | 164 kts | 62° |
| 2026-04-29 18:05 | 52.23276 | 4.59116 | 2084 ft | 161 kts | 62° |
| 2026-04-29 18:05 | 52.23861 | 4.60630 | 1865 ft | 150 kts | 62° |
| 2026-04-29 18:06 | 52.24398 | 4.62018 | 1663 ft | 141 kts | 62° |
| 2026-04-29 18:06 | 52.24911 | 4.63347 | 1477 ft | 136 kts | 62° |
| 2026-04-29 18:06 | 52.25415 | 4.64651 | 1293 ft | 136 kts | 62° |
| 2026-04-29 18:06 | 52.25916 | 4.65951 | 1106 ft | 134 kts | 61° |
| 2026-04-29 18:07 | 52.26414 | 4.67242 | 932 ft | 135 kts | 61° |
| 2026-04-29 18:07 | 52.26930 | 4.68548 | 753 ft | 136 kts | 56° |
| 2026-04-29 18:07 | 52.27438 | 4.69843 | 651 ft | 134 kts | 59° |
| 2026-04-29 18:07 | 52.27928 | 4.71158 | 427 ft | 136 kts | 58° |
| 2026-04-29 18:08 | 52.28433 | 4.72469 | 241 ft | 136 kts | 60° |
| 2026-04-29 18:08 | 52.28762 | 4.73327 | 101 ft | 136 kts | 60° |
| 2026-04-29 18:08 | 52.29245 | 4.74598 | 0 ft | 119 kts | 59° |
| 2026-04-29 18:08 | 52.29527 | 4.75330 | -2 ft | 33 kts | 58° |
| 2026-04-29 18:09 | 52.29620 | 4.75569 | -1 ft | 21 kts | 56° |
| 2026-04-29 18:09 | 52.29710 | 4.75737 | -2 ft | 17 kts | 36° |
| 2026-04-29 18:09 | 52.29789 | 4.75810 | -2 ft | 11 kts | 28° |
| 2026-04-29 18:09 | 52.29866 | 4.75877 | -2 ft | 12 kts | 27° |
| 2026-04-29 18:10 | 52.29912 | 4.75915 | -1 ft | 8 kts | 27° |
| 2026-04-29 18:10 | 52.29934 | 4.75934 | -1 ft | 3 kts | 27° |
| 2026-04-29 18:10 | 52.29953 | 4.75950 | -1 ft | 3 kts | 27° |
| 2026-04-29 18:10 | 52.29970 | 4.75964 | -1 ft | 3 kts | 28° |
| 2026-04-29 18:11 | 52.29995 | 4.76002 | -1 ft | 6 kts | 51° |
| 2026-04-29 18:11 | 52.30024 | 4.76073 | -1 ft | 9 kts | 56° |
| 2026-04-29 18:11 | 52.30061 | 4.76168 | -1 ft | 11 kts | 58° |
| 2026-04-29 18:11 | 52.30105 | 4.76283 | -1 ft | 13 kts | 58° |
| 2026-04-29 18:12 | 52.30153 | 4.76409 | -1 ft | 14 kts | 58° |
| 2026-04-29 18:12 | 52.30200 | 4.76530 | -1 ft | 11 kts | 57° |
| 2026-04-29 18:12 | 52.30246 | 4.76648 | -1 ft | 13 kts | 58° |
| 2026-04-29 18:12 | 52.30298 | 4.76785 | -1 ft | 15 kts | 57° |
| 2026-04-29 18:13 | 52.30346 | 4.76908 | -1 ft | 13 kts | 57° |
| 2026-04-29 18:13 | 52.30396 | 4.77038 | -1 ft | 14 kts | 58° |
| 2026-04-29 18:13 | 52.30451 | 4.77183 | -1 ft | 16 kts | 58° |
| 2026-04-29 18:13 | 52.30502 | 4.77318 | -1 ft | 13 kts | 59° |
| 2026-04-29 18:14 | 52.30552 | 4.77447 | -1 ft | 14 kts | 57° |
| 2026-04-29 18:14 | 52.30608 | 4.77557 | -1 ft | 13 kts | 37° |
| 2026-04-29 18:14 | 52.30694 | 4.77590 | -1 ft | 13 kts | 4° |
| 2026-04-29 18:14 | 52.30788 | 4.77600 | -1 ft | 14 kts | 3° |
| 2026-04-29 18:15 | 52.30888 | 4.77609 | -1 ft | 15 kts | 3° |
| 2026-04-29 18:15 | 52.30993 | 4.77620 | -1 ft | 15 kts | 4° |
| 2026-04-29 18:15 | 52.31096 | 4.77627 | -1 ft | 15 kts | 3° |
| 2026-04-29 18:15 | 52.31203 | 4.77639 | -1 ft | 16 kts | 4° |
| 2026-04-29 18:16 | 52.31308 | 4.77647 | -1 ft | 13 kts | 3° |
| 2026-04-29 18:16 | 52.31401 | 4.77653 | -1 ft | 14 kts | 358° |
| 2026-04-29 18:16 | 52.31482 | 4.77600 | -1 ft | 10 kts | 323° |
| 2026-04-29 18:16 | 52.31531 | 4.77525 | -1 ft | 9 kts | 314° |
| 2026-04-29 18:17 | 52.31567 | 4.77440 | -1 ft | 9 kts | 291° |
| 2026-04-29 18:17 | 52.31577 | 4.77343 | -1 ft | 8 kts | 267° |
| 2026-04-29 18:17 | 52.31573 | 4.77235 | -1 ft | 12 kts | 268° |
| 2026-04-29 18:17 | 52.31568 | 4.77106 | -1 ft | 11 kts | 266° |
| 2026-04-29 18:18 | 52.31563 | 4.76982 | -1 ft | 12 kts | 266° |
| 2026-04-29 18:18 | 52.31559 | 4.76836 | -1 ft | 12 kts | 267° |
| 2026-04-29 18:18 | 52.31554 | 4.76699 | -1 ft | 12 kts | 266° |
| 2026-04-29 18:18 | 52.31549 | 4.76571 | -1 ft | 11 kts | 266° |
| 2026-04-29 18:19 | 52.31546 | 4.76452 | -1 ft | 10 kts | 268° |
| 2026-04-29 18:19 | 52.31542 | 4.76340 | -1 ft | 10 kts | 266° |
| 2026-04-29 18:19 | 52.31538 | 4.76235 | -1 ft | 9 kts | 267° |
| 2026-04-29 18:19 | 52.31535 | 4.76137 | -1 ft | 8 kts | 266° |
| 2026-04-29 18:20 | 52.31532 | 4.76035 | -1 ft | 11 kts | 268° |
| 2026-04-29 18:20 | 52.31527 | 4.75907 | -1 ft | 11 kts | 266° |
| 2026-04-29 18:20 | 52.31522 | 4.75755 | -1 ft | 15 kts | 268° |
| 2026-04-29 18:20 | 52.31516 | 4.75591 | -1 ft | 14 kts | 266° |
| 2026-04-29 18:21 | 52.31481 | 4.75469 | -1 ft | 12 kts | 194° |
| 2026-04-29 18:21 | 52.31399 | 4.75474 | -1 ft | 11 kts | 177° |
| 2026-04-29 18:21 | 52.31323 | 4.75480 | -1 ft | 11 kts | 177° |
| 2026-04-29 18:21 | 52.31251 | 4.75487 | -1 ft | 10 kts | 176° |
| 2026-04-29 18:22 | 52.31184 | 4.75494 | -1 ft | 9 kts | 175° |
| 2026-04-29 18:22 | 52.31122 | 4.75496 | -1 ft | 9 kts | 192° |
| 2026-04-29 18:22 | 52.31093 | 4.75476 | -1 ft | 4 kts | 187° |
| 2026-04-29 18:22 | 52.31072 | 4.75491 | -1 ft | 3 kts | 148° |
| 2026-04-29 18:23 | 52.31055 | 4.75508 | -1 ft | 3 kts | 148° |
| 2026-04-29 18:23 | 52.31046 | 4.75518 | -1 ft | 1 kts | 148° |
| 2026-04-29 18:23 | 52.31045 | 4.75518 | -1 ft | 0 kts | 148° |